createdAt,value
2022-10-17T00:00:29.138Z,15.10
2022-10-17T00:01:32.198Z,15.10
2022-10-17T00:02:34.172Z,15.10
2022-10-17T00:03:38.643Z,15.10
2022-10-17T00:04:40.670Z,15.10
2022-10-17T00:05:45.358Z,15.10
2022-10-17T00:06:47.280Z,15.10
2022-10-17T00:07:50.185Z,15.10
2022-10-17T00:08:52.165Z,15.10
2022-10-17T00:09:56.641Z,15.10
2022-10-17T00:11:01.169Z,15.10
2022-10-17T00:12:04.111Z,15.10
2022-10-17T00:13:06.724Z,15.10
2022-10-17T00:14:09.648Z,15.00
2022-10-17T00:15:14.743Z,15.00
2022-10-17T00:16:25.267Z,15.00
2022-10-17T00:17:27.323Z,15.00
2022-10-17T00:18:30.353Z,15.00
2022-10-17T00:19:32.305Z,15.00
2022-10-17T00:20:36.745Z,15.10
2022-10-17T00:21:38.701Z,15.00
2022-10-17T00:22:41.609Z,15.00
2022-10-17T00:23:43.534Z,15.00
2022-10-17T00:24:46.480Z,15.00
2022-10-17T00:25:58.330Z,15.00
2022-10-17T00:27:01.253Z,15.00
2022-10-17T00:28:03.637Z,15.00
2022-10-17T00:29:06.650Z,15.00
2022-10-17T00:30:12.384Z,15.00
2022-10-17T00:31:19.645Z,14.90
2022-10-17T00:32:22.900Z,15.00
2022-10-17T00:33:25.863Z,15.00
2022-10-17T00:34:29.409Z,15.00
2022-10-17T00:35:32.903Z,14.90
2022-10-17T00:36:34.990Z,14.90
2022-10-17T00:37:37.981Z,15.00
2022-10-17T00:38:40.606Z,15.00
2022-10-17T00:39:43.514Z,15.00
2022-10-17T00:40:45.529Z,15.00
2022-10-17T00:41:49.808Z,15.00
2022-10-17T00:42:53.132Z,15.00
2022-10-17T00:43:59.090Z,15.00
2022-10-17T00:45:06.300Z,15.00
2022-10-17T00:46:09.709Z,15.00
2022-10-17T00:47:15.417Z,15.00
2022-10-17T00:48:22.513Z,15.00
2022-10-17T00:49:27.669Z,15.00
2022-10-17T00:50:30.896Z,15.00
2022-10-17T00:51:38.524Z,15.00
2022-10-17T00:52:42.109Z,15.00
2022-10-17T00:53:44.328Z,15.00
2022-10-17T00:54:50.988Z,15.00
2022-10-17T00:55:54.046Z,15.00
2022-10-17T00:56:58.901Z,14.90
2022-10-17T00:58:04.705Z,14.90
2022-10-17T00:59:09.636Z,14.90
2022-10-17T01:00:12.897Z,15.00
2022-10-17T01:01:16.007Z,14.90
2022-10-17T01:02:21.080Z,15.00
2022-10-17T01:03:24.581Z,15.00
2022-10-17T01:04:26.575Z,15.00
2022-10-17T01:05:30.041Z,14.90
2022-10-17T01:06:31.984Z,14.90
2022-10-17T01:07:37.222Z,14.90
2022-10-17T01:08:39.666Z,14.80
2022-10-17T01:09:44.372Z,14.90
2022-10-17T01:10:58.512Z,14.90
2022-10-17T01:12:08.826Z,14.80
2022-10-17T01:13:16.022Z,14.90
2022-10-17T01:14:26.108Z,14.90
2022-10-17T01:15:43.684Z,14.80
2022-10-17T01:16:53.114Z,14.80
2022-10-17T01:18:04.781Z,14.80
2022-10-17T01:19:28.484Z,14.80
2022-10-17T01:20:56.628Z,14.80
2022-10-17T01:22:04.168Z,14.90
2022-10-17T01:23:22.420Z,14.80
2022-10-17T01:24:51.126Z,14.80
2022-10-17T01:25:56.941Z,14.70
2022-10-17T01:27:27.283Z,14.80
2022-10-17T01:28:56.550Z,14.80
2022-10-17T01:30:12.691Z,14.80
2022-10-17T01:31:16.816Z,14.80
2022-10-17T01:32:24.018Z,14.70
2022-10-17T01:33:33.077Z,14.70
2022-10-17T01:34:45.561Z,14.70
2022-10-17T01:35:53.748Z,14.70
2022-10-17T01:37:02.413Z,14.70
2022-10-17T01:38:10.222Z,14.80
2022-10-17T01:39:18.106Z,14.80
2022-10-17T01:40:24.632Z,14.70
2022-10-17T01:41:36.650Z,14.70
2022-10-17T01:42:44.218Z,14.70
2022-10-17T01:43:54.219Z,14.70
2022-10-17T01:44:59.614Z,14.60
2022-10-17T01:46:06.516Z,14.60
2022-10-17T01:47:14.439Z,14.60
2022-10-17T01:48:21.490Z,14.60
2022-10-17T01:49:28.647Z,14.60
2022-10-17T01:50:34.349Z,14.60
2022-10-17T01:51:40.885Z,14.60
2022-10-17T01:52:47.922Z,14.50
2022-10-17T01:53:54.082Z,14.60
2022-10-17T01:55:00.654Z,14.60
2022-10-17T01:56:06.979Z,14.60
2022-10-17T01:57:16.549Z,14.60
2022-10-17T01:58:24.918Z,14.50
2022-10-17T01:59:34.774Z,14.50
2022-10-17T02:00:37.943Z,14.50
2022-10-17T02:01:44.476Z,14.50
2022-10-17T02:02:50.357Z,14.40
2022-10-17T02:03:54.609Z,14.50
2022-10-17T02:04:57.778Z,14.50
2022-10-17T02:06:00.934Z,14.50
2022-10-17T02:07:07.271Z,14.50
2022-10-17T02:08:10.465Z,14.40
2022-10-17T02:09:20.563Z,14.50
2022-10-17T02:10:32.631Z,14.50
2022-10-17T02:11:34.553Z,14.50
2022-10-17T02:12:49.327Z,14.40
2022-10-17T02:15:50.753Z,14.50
2022-10-17T02:17:03.492Z,14.40
2022-10-17T02:18:22.378Z,14.50
2022-10-17T02:19:45.209Z,14.40
2022-10-17T02:20:54.633Z,14.50
2022-10-17T02:22:09.934Z,14.50
2022-10-17T02:23:20.816Z,14.50
2022-10-17T02:24:32.393Z,14.50
2022-10-17T02:25:42.512Z,14.50
2022-10-17T02:26:50.355Z,14.50
2022-10-17T02:27:57.717Z,14.50
2022-10-17T02:29:06.722Z,14.50
2022-10-17T02:30:14.446Z,14.40
2022-10-17T02:31:21.514Z,14.40
2022-10-17T02:32:30.001Z,14.40
2022-10-17T02:33:38.106Z,14.30
2022-10-17T02:34:44.487Z,14.30
2022-10-17T02:35:52.212Z,14.30
2022-10-17T02:36:59.364Z,14.30
2022-10-17T02:38:05.002Z,14.30
2022-10-17T02:39:09.198Z,14.30
2022-10-17T02:40:14.261Z,14.30
2022-10-17T02:41:18.985Z,14.30
2022-10-17T02:42:24.461Z,14.30
2022-10-17T02:43:26.705Z,14.30
2022-10-17T02:44:31.543Z,14.30
2022-10-17T02:45:36.166Z,14.30
2022-10-17T02:46:42.154Z,14.40
2022-10-17T02:47:54.192Z,14.40
2022-10-17T02:49:02.840Z,14.30
2022-10-17T02:50:05.529Z,14.30
2022-10-17T02:51:18.069Z,14.30
2022-10-17T02:52:27.912Z,14.30
2022-10-17T02:53:37.075Z,14.30
2022-10-17T02:54:43.336Z,14.30
2022-10-17T02:55:52.334Z,14.30
2022-10-17T02:57:02.528Z,14.30
2022-10-17T02:58:09.118Z,14.30
2022-10-17T02:59:15.449Z,14.30
2022-10-17T03:00:20.622Z,14.30
2022-10-17T03:01:23.204Z,14.30
2022-10-17T03:02:26.924Z,14.30
2022-10-17T03:03:31.713Z,14.30
2022-10-17T03:04:36.024Z,14.30
2022-10-17T03:05:37.914Z,14.30
2022-10-17T03:06:41.691Z,14.30
2022-10-17T03:07:43.594Z,14.30
2022-10-17T03:08:46.502Z,14.30
2022-10-17T03:09:48.442Z,14.30
2022-10-17T03:10:52.110Z,14.30
2022-10-17T03:11:54.107Z,14.30
2022-10-17T03:12:56.998Z,14.20
2022-10-17T03:13:58.929Z,14.20
2022-10-17T03:15:01.841Z,14.10
2022-10-17T03:16:03.795Z,14.10
2022-10-17T03:17:06.725Z,14.10
2022-10-17T03:18:08.674Z,14.10
2022-10-17T03:19:11.576Z,14.10
2022-10-17T03:20:14.987Z,14.10
2022-10-17T03:21:17.930Z,14.10
2022-10-17T03:22:19.858Z,14.10
2022-10-17T03:23:22.775Z,14.10
2022-10-17T03:24:24.729Z,14.10
2022-10-17T03:25:27.694Z,14.10
2022-10-17T03:26:29.965Z,14.10
2022-10-17T03:27:33.113Z,14.10
2022-10-17T03:28:35.535Z,14.10
2022-10-17T03:29:38.581Z,14.10
2022-10-17T03:30:40.507Z,14.10
2022-10-17T03:31:43.637Z,14.00
2022-10-17T03:32:45.605Z,14.10
2022-10-17T03:33:48.542Z,14.00
2022-10-17T03:34:50.477Z,14.00
2022-10-17T03:35:54.742Z,14.10
2022-10-17T03:36:57.701Z,14.00
2022-10-17T03:37:59.618Z,14.10
2022-10-17T03:39:02.525Z,14.10
2022-10-17T03:40:05.202Z,14.10
2022-10-17T03:41:08.634Z,14.10
2022-10-17T03:42:10.587Z,14.20
2022-10-17T03:43:13.513Z,14.10
2022-10-17T03:44:15.789Z,14.10
2022-10-17T03:45:18.753Z,14.10
2022-10-17T03:46:20.737Z,14.10
2022-10-17T03:47:23.740Z,14.10
2022-10-17T03:48:26.505Z,14.00
2022-10-17T03:49:29.393Z,14.00
2022-10-17T03:50:31.382Z,14.00
2022-10-17T03:51:35.788Z,14.00
2022-10-17T03:52:37.750Z,13.90
2022-10-17T03:53:40.676Z,13.90
2022-10-17T03:54:42.630Z,14.00
2022-10-17T03:55:45.599Z,13.90
2022-10-17T03:56:47.571Z,14.00
2022-10-17T03:57:50.540Z,14.00
2022-10-17T03:58:52.638Z,14.10
2022-10-17T03:59:55.594Z,14.00
2022-10-17T04:00:57.564Z,14.10
2022-10-17T04:02:00.569Z,14.10
2022-10-17T04:03:02.513Z,14.10
2022-10-17T04:04:05.636Z,14.10
2022-10-17T04:05:09.482Z,14.10
2022-10-17T04:06:13.155Z,14.10
2022-10-17T04:07:17.578Z,14.00
2022-10-17T04:08:19.510Z,14.00
2022-10-17T04:09:22.410Z,14.00
2022-10-17T04:10:24.334Z,14.00
2022-10-17T04:11:27.293Z,14.10
2022-10-17T04:12:30.310Z,14.10
2022-10-17T04:13:33.375Z,14.00
2022-10-17T04:14:36.423Z,14.10
2022-10-17T04:15:38.330Z,14.00
2022-10-17T04:16:41.492Z,14.00
2022-10-17T04:17:44.385Z,14.00
2022-10-17T04:18:46.314Z,13.90
2022-10-17T04:19:50.510Z,13.90
2022-10-17T04:20:52.664Z,13.90
2022-10-17T04:21:55.787Z,13.90
2022-10-17T04:22:59.110Z,13.90
2022-10-17T04:24:02.141Z,13.90
2022-10-17T04:25:04.391Z,13.90
2022-10-17T04:26:08.094Z,13.90
2022-10-17T04:27:10.104Z,13.90
2022-10-17T04:28:13.631Z,13.90
2022-10-17T04:29:15.621Z,13.90
2022-10-17T04:30:18.647Z,13.90
2022-10-17T04:31:20.557Z,13.90
2022-10-17T04:32:23.656Z,13.90
2022-10-17T04:33:25.674Z,13.90
2022-10-17T04:34:28.583Z,13.90
2022-10-17T04:35:30.550Z,13.90
2022-10-17T04:36:33.513Z,13.90
2022-10-17T04:37:35.457Z,13.90
2022-10-17T04:38:39.968Z,13.90
2022-10-17T04:39:42.008Z,13.90
2022-10-17T04:40:44.892Z,13.80
2022-10-17T04:41:46.810Z,13.80
2022-10-17T04:42:50.001Z,13.90
2022-10-17T04:43:51.930Z,13.80
2022-10-17T04:44:54.905Z,13.80
2022-10-17T04:45:57.673Z,13.80
2022-10-17T04:47:00.614Z,13.80
2022-10-17T04:48:02.553Z,13.80
2022-10-17T04:49:05.480Z,13.70
2022-10-17T04:50:08.111Z,13.70
2022-10-17T04:51:14.433Z,13.70
2022-10-17T04:52:16.352Z,13.70
2022-10-17T04:53:19.435Z,13.70
2022-10-17T04:54:23.014Z,13.70
2022-10-17T04:55:26.040Z,13.70
2022-10-17T04:56:28.080Z,13.80
2022-10-17T04:57:31.013Z,13.80
2022-10-17T04:58:32.949Z,13.80
2022-10-17T04:59:35.888Z,13.80
2022-10-17T05:00:37.911Z,13.80
2022-10-17T05:01:40.858Z,13.70
2022-10-17T05:02:42.799Z,13.70
2022-10-17T05:03:46.463Z,13.80
2022-10-17T05:04:48.402Z,13.80
2022-10-17T05:05:51.557Z,13.80
2022-10-17T05:06:53.540Z,13.80
2022-10-17T05:07:56.512Z,13.80
2022-10-17T05:08:58.484Z,13.80
2022-10-17T05:10:02.770Z,13.70
2022-10-17T05:11:05.850Z,13.70
2022-10-17T05:12:10.388Z,13.80
2022-10-17T05:13:12.732Z,13.80
2022-10-17T05:14:16.730Z,13.70
2022-10-17T05:15:18.682Z,13.70
2022-10-17T05:16:22.018Z,13.70
2022-10-17T05:17:24.184Z,13.70
2022-10-17T05:18:27.269Z,13.70
2022-10-17T05:19:29.182Z,13.70
2022-10-17T05:20:32.966Z,13.70
2022-10-17T05:21:37.160Z,13.60
2022-10-17T05:22:42.152Z,13.70
2022-10-17T05:23:45.415Z,13.70
2022-10-17T05:24:47.349Z,13.70
2022-10-17T05:25:55.837Z,13.70
2022-10-17T05:26:58.789Z,13.70
2022-10-17T05:28:00.685Z,13.80
2022-10-17T05:29:04.270Z,13.80
2022-10-17T05:30:07.534Z,13.80
2022-10-17T05:31:12.618Z,13.90
2022-10-17T05:32:15.226Z,13.90
2022-10-17T05:33:18.145Z,13.80
2022-10-17T05:34:20.121Z,13.80
2022-10-17T05:35:23.351Z,13.80
2022-10-17T05:36:25.332Z,13.80
2022-10-17T05:37:30.574Z,13.80
2022-10-17T05:38:33.760Z,13.80
2022-10-17T05:39:35.665Z,13.80
2022-10-17T05:40:39.487Z,13.80
2022-10-17T05:41:43.830Z,13.80
2022-10-17T05:42:49.304Z,13.80
2022-10-17T05:43:52.218Z,13.80
2022-10-17T05:44:54.134Z,13.80
2022-10-17T05:45:57.298Z,13.90
2022-10-17T05:46:59.430Z,13.80
2022-10-17T05:48:02.332Z,13.90
2022-10-17T05:49:14.759Z,13.90
2022-10-17T05:50:24.034Z,13.90
2022-10-17T05:51:26.345Z,13.90
2022-10-17T05:52:29.481Z,13.80
2022-10-17T05:53:33.107Z,13.90
2022-10-17T05:54:36.281Z,13.80
2022-10-17T05:55:39.229Z,13.80
2022-10-17T05:56:42.538Z,13.90
2022-10-17T05:57:45.473Z,13.90
2022-10-17T05:58:50.795Z,13.90
2022-10-17T05:59:54.118Z,13.90
2022-10-17T06:00:59.857Z,13.90
2022-10-17T06:02:01.893Z,13.90
2022-10-17T06:03:05.288Z,13.80
2022-10-17T06:04:07.213Z,13.90
2022-10-17T06:05:10.421Z,13.90
2022-10-17T06:06:14.395Z,13.80
2022-10-17T06:07:17.856Z,13.80
2022-10-17T06:08:20.306Z,13.80
2022-10-17T06:09:23.506Z,13.70
2022-10-17T06:10:25.433Z,13.80
2022-10-17T06:11:28.449Z,13.80
2022-10-17T06:12:31.979Z,13.90
2022-10-17T06:13:35.079Z,13.80
2022-10-17T06:14:36.983Z,13.80
2022-10-17T06:15:39.955Z,13.80
2022-10-17T06:16:43.367Z,13.80
2022-10-17T06:17:46.283Z,13.80
2022-10-17T06:19:57.154Z,13.80
2022-10-17T06:21:04.379Z,13.80
2022-10-17T06:22:06.277Z,13.70
2022-10-17T06:23:09.186Z,13.90
2022-10-17T06:24:12.122Z,13.90
2022-10-17T06:25:14.866Z,13.90
2022-10-17T06:26:18.037Z,13.90
2022-10-17T06:27:20.197Z,14.00
2022-10-17T06:28:24.529Z,14.00
2022-10-17T06:29:26.470Z,14.00
2022-10-17T06:30:29.733Z,14.00
2022-10-17T06:31:31.659Z,14.10
2022-10-17T06:32:34.578Z,14.00
2022-10-17T06:33:36.704Z,14.00
2022-10-17T06:34:39.609Z,14.00
2022-10-17T06:35:41.581Z,14.10
2022-10-17T06:36:44.574Z,14.00
2022-10-17T06:37:46.674Z,14.00
2022-10-17T06:38:49.576Z,14.00
2022-10-17T06:39:54.010Z,14.00
2022-10-17T06:41:03.272Z,14.00
2022-10-17T06:42:05.366Z,14.00
2022-10-17T06:43:08.271Z,14.00
2022-10-17T06:44:11.919Z,14.00
2022-10-17T06:45:15.141Z,14.00
2022-10-17T06:46:18.610Z,14.10
2022-10-17T06:47:21.574Z,14.10
2022-10-17T06:48:23.489Z,14.10
2022-10-17T06:49:26.757Z,14.10
2022-10-17T06:50:28.722Z,14.10
2022-10-17T06:51:31.954Z,14.00
2022-10-17T06:52:34.201Z,14.00
2022-10-17T06:53:37.370Z,14.10
2022-10-17T06:54:39.286Z,14.10
2022-10-17T06:55:42.866Z,14.10
2022-10-17T06:56:44.778Z,14.20
2022-10-17T06:57:47.793Z,15.20
2022-10-17T06:58:51.286Z,14.20
2022-10-17T06:59:57.501Z,14.20
2022-10-17T07:01:00.966Z,14.20
2022-10-17T07:02:05.318Z,14.10
2022-10-17T07:03:07.243Z,14.10
2022-10-17T07:04:10.228Z,14.20
2022-10-17T07:05:12.403Z,14.10
2022-10-17T07:06:15.401Z,14.00
2022-10-17T07:07:18.558Z,14.00
2022-10-17T07:08:20.598Z,14.00
2022-10-17T07:09:24.270Z,14.00
2022-10-17T07:10:27.227Z,14.10
2022-10-17T07:11:30.202Z,14.10
2022-10-17T07:12:34.900Z,14.10
2022-10-17T07:13:39.096Z,14.20
2022-10-17T07:14:42.262Z,14.20
2022-10-17T07:15:46.000Z,14.30
2022-10-17T07:16:48.981Z,14.30
2022-10-17T07:17:50.915Z,14.30
2022-10-17T07:18:54.315Z,14.40
2022-10-17T07:19:57.485Z,14.50
2022-10-17T07:20:59.497Z,14.40
2022-10-17T07:22:02.436Z,14.40
2022-10-17T07:23:04.441Z,14.50
2022-10-17T07:24:07.547Z,14.40
2022-10-17T07:25:10.981Z,14.50
2022-10-17T07:26:15.596Z,14.50
2022-10-17T07:27:18.512Z,14.50
2022-10-17T07:28:20.438Z,14.50
2022-10-17T07:29:23.379Z,14.50
2022-10-17T07:30:25.421Z,14.50
2022-10-17T07:31:29.805Z,14.50
2022-10-17T07:32:31.733Z,14.50
2022-10-17T07:33:34.996Z,14.50
2022-10-17T07:34:38.593Z,14.60
2022-10-17T07:35:40.940Z,14.60
2022-10-17T07:36:43.898Z,14.60
2022-10-17T07:37:46.806Z,14.70
2022-10-17T07:38:49.713Z,14.70
2022-10-17T07:39:51.672Z,14.70
2022-10-17T07:40:57.486Z,14.70
2022-10-17T07:42:00.417Z,14.70
2022-10-17T07:43:02.417Z,14.70
2022-10-17T07:44:05.714Z,14.70
2022-10-17T07:45:13.574Z,14.60
2022-10-17T07:46:16.509Z,14.70
2022-10-17T07:47:20.071Z,14.70
2022-10-17T07:48:24.713Z,14.70
2022-10-17T07:49:27.704Z,14.70
2022-10-17T07:50:29.641Z,14.80
2022-10-17T07:51:32.652Z,14.80
2022-10-17T07:52:34.695Z,14.80
2022-10-17T07:53:38.130Z,14.80
2022-10-17T07:54:40.439Z,14.80
2022-10-17T07:55:44.805Z,14.90
2022-10-17T07:56:50.427Z,14.90
2022-10-17T07:57:53.533Z,14.90
2022-10-17T08:00:06.208Z,15.10
2022-10-17T08:01:14.844Z,15.30
2022-10-17T08:02:23.658Z,14.90
2022-10-17T08:03:26.561Z,14.80
2022-10-17T08:04:35.234Z,14.90
2022-10-17T08:05:37.183Z,14.70
2022-10-17T08:06:40.118Z,14.70
2022-10-17T08:07:42.123Z,15.40
2022-10-17T08:08:45.581Z,15.90
2022-10-17T08:09:48.059Z,16.30
2022-10-17T08:10:51.115Z,16.40
2022-10-17T08:11:54.038Z,15.90
2022-10-17T08:12:57.042Z,16.00
2022-10-17T08:13:59.965Z,16.00
2022-10-17T08:15:01.924Z,16.10
2022-10-17T08:16:08.141Z,16.40
2022-10-17T08:17:10.256Z,16.50
2022-10-17T08:18:14.826Z,16.30
2022-10-17T08:19:17.717Z,16.10
2022-10-17T08:20:19.633Z,15.60
2022-10-17T08:21:22.589Z,15.50
2022-10-17T08:22:25.569Z,15.70
2022-10-17T08:23:28.521Z,16.10
2022-10-17T08:24:30.428Z,16.30
2022-10-17T08:25:33.655Z,16.60
2022-10-17T08:26:40.633Z,16.80
2022-10-17T08:27:46.357Z,16.90
2022-10-17T08:28:49.008Z,17.00
2022-10-17T08:29:53.506Z,17.00
2022-10-17T08:31:03.251Z,17.20
2022-10-17T08:32:07.818Z,16.50
2022-10-17T08:33:13.072Z,16.20
2022-10-17T08:34:16.527Z,15.80
2022-10-17T08:35:19.599Z,15.40
2022-10-17T08:36:22.533Z,15.20
2022-10-17T08:37:24.521Z,15.30
2022-10-17T08:38:27.965Z,15.70
2022-10-17T08:39:29.950Z,16.20
2022-10-17T08:40:35.343Z,16.50
2022-10-17T08:42:04.241Z,16.70
2022-10-17T08:43:27.167Z,16.90
2022-10-17T08:44:39.722Z,17.10
2022-10-17T08:45:48.392Z,17.20
2022-10-17T08:46:57.000Z,17.30
2022-10-17T08:48:01.202Z,17.30
2022-10-17T08:49:12.552Z,17.30
2022-10-17T08:50:23.781Z,17.40
2022-10-17T08:51:31.871Z,17.40
2022-10-17T08:52:40.637Z,17.40
2022-10-17T08:53:49.973Z,17.40
2022-10-17T08:54:52.223Z,17.30
2022-10-17T08:55:56.110Z,17.30
2022-10-17T08:56:58.085Z,17.40
2022-10-17T08:58:01.334Z,17.40
2022-10-17T08:59:05.512Z,17.50
2022-10-17T09:00:16.139Z,17.50
2022-10-17T09:01:33.549Z,17.50
2022-10-17T09:02:45.580Z,17.40
2022-10-17T09:04:03.204Z,17.20
2022-10-17T09:05:33.451Z,17.40
2022-10-17T09:06:40.052Z,17.40
2022-10-17T09:07:48.568Z,17.50
2022-10-17T09:09:04.158Z,17.50
2022-10-17T09:10:15.455Z,17.60
2022-10-17T09:11:32.421Z,17.60
2022-10-17T09:12:44.413Z,17.60
2022-10-17T09:14:02.119Z,17.20
2022-10-17T09:15:36.351Z,17.30
2022-10-17T09:17:11.435Z,17.40
2022-10-17T09:18:21.093Z,17.30
2022-10-17T09:19:29.761Z,16.60
2022-10-17T09:20:37.547Z,16.50
2022-10-17T09:21:46.129Z,16.20
2022-10-17T09:24:09.601Z,15.80
2022-10-17T09:25:20.678Z,15.70
2022-10-17T09:26:24.424Z,15.70
2022-10-17T09:27:32.747Z,15.80
2022-10-17T09:30:43.630Z,15.90
2022-10-17T09:31:52.012Z,15.70
2022-10-17T09:32:54.590Z,15.70
2022-10-17T09:34:01.480Z,15.70
2022-10-17T09:35:03.781Z,15.80
2022-10-17T09:36:14.870Z,15.70
2022-10-17T09:37:17.918Z,15.90
2022-10-17T09:38:22.642Z,15.90
2022-10-17T09:39:26.098Z,15.90
2022-10-17T09:40:35.654Z,16.10
2022-10-17T09:41:46.608Z,16.40
2022-10-17T09:42:52.066Z,16.80
2022-10-17T09:43:56.858Z,16.90
2022-10-17T09:45:18.537Z,16.70
2022-10-17T09:46:26.857Z,16.80
2022-10-17T09:47:33.245Z,17.00
2022-10-17T09:48:41.664Z,17.10
2022-10-17T09:49:45.042Z,17.30
2022-10-17T09:50:57.825Z,17.40
2022-10-17T09:52:17.377Z,17.40
2022-10-17T09:53:25.128Z,17.50
2022-10-17T09:54:33.415Z,17.60
2022-10-17T09:55:42.253Z,17.70
2022-10-17T09:56:59.081Z,17.70
2022-10-17T09:58:03.856Z,17.50
2022-10-17T09:59:09.281Z,17.50
2022-10-17T10:00:22.679Z,17.60
2022-10-17T10:01:28.410Z,17.40
2022-10-17T10:02:36.269Z,17.30
2022-10-17T10:03:39.016Z,17.40
2022-10-17T10:05:08.816Z,17.20
2022-10-17T10:06:15.840Z,17.40
2022-10-17T10:07:22.017Z,17.30
2022-10-17T10:08:29.296Z,17.30
2022-10-17T10:09:36.867Z,17.30
2022-10-17T10:10:43.286Z,17.20
2022-10-17T10:11:48.859Z,17.00
2022-10-17T10:13:05.906Z,17.10
2022-10-17T10:14:14.038Z,17.00
2022-10-17T10:15:34.581Z,17.10
2022-10-17T10:16:44.098Z,17.20
2022-10-17T10:17:46.005Z,17.30
2022-10-17T10:18:50.986Z,17.40
2022-10-17T10:19:53.822Z,17.50
2022-10-17T10:21:07.171Z,17.60
2022-10-17T10:22:17.538Z,17.70
2022-10-17T10:23:22.194Z,17.70
2022-10-17T10:24:30.779Z,17.70
2022-10-17T10:25:33.608Z,17.70
2022-10-17T10:26:40.846Z,17.70
2022-10-17T10:27:46.065Z,17.70
2022-10-17T10:29:01.295Z,17.70
2022-10-17T10:30:04.901Z,17.70
2022-10-17T10:31:10.075Z,17.70
2022-10-17T10:32:19.761Z,17.70
2022-10-17T10:33:23.465Z,17.70
2022-10-17T10:34:29.389Z,17.70
2022-10-17T10:35:33.465Z,17.80
2022-10-17T10:36:48.370Z,17.70
2022-10-17T10:37:54.442Z,17.70
2022-10-17T10:39:02.384Z,17.70
2022-10-17T10:40:17.976Z,17.70
2022-10-17T10:41:19.904Z,17.70
2022-10-17T10:42:29.441Z,17.70
2022-10-17T10:43:36.275Z,17.70
2022-10-17T10:44:42.022Z,17.70
2022-10-17T10:45:48.497Z,17.80
2022-10-17T10:47:15.604Z,17.80
2022-10-17T10:48:22.646Z,17.80
2022-10-17T10:49:30.247Z,17.90
2022-10-17T10:50:40.575Z,17.90
2022-10-17T10:51:47.669Z,17.80
2022-10-17T10:52:58.681Z,17.80
2022-10-17T10:54:09.796Z,17.90
2022-10-17T10:55:22.673Z,17.90
2022-10-17T10:56:29.592Z,17.90
2022-10-17T10:57:34.981Z,17.90
2022-10-17T10:58:50.075Z,18.00
2022-10-17T10:59:58.320Z,18.00
2022-10-17T11:01:07.034Z,18.00
2022-10-17T11:02:19.364Z,18.00
2022-10-17T11:03:28.301Z,18.00
2022-10-17T11:04:39.501Z,18.00
2022-10-17T11:05:47.509Z,18.00
2022-10-17T11:06:53.178Z,18.00
2022-10-17T11:08:07.826Z,18.00
2022-10-17T11:09:30.067Z,18.00
2022-10-17T11:10:42.686Z,18.00
2022-10-17T11:11:49.550Z,18.10
2022-10-17T11:12:57.757Z,18.00
2022-10-17T11:14:09.640Z,18.00
2022-10-17T11:15:25.239Z,18.20
2022-10-17T11:16:35.127Z,18.20
2022-10-17T11:17:44.198Z,18.20
2022-10-17T11:18:50.041Z,18.20
2022-10-17T11:20:03.554Z,18.10
2022-10-17T11:21:14.400Z,18.00
2022-10-17T11:22:23.976Z,18.00
2022-10-17T11:23:35.995Z,18.00
2022-10-17T11:24:45.677Z,18.00
2022-10-17T11:25:51.219Z,18.00
2022-10-17T11:26:58.869Z,18.00
2022-10-17T11:28:04.916Z,18.00
2022-10-17T11:29:09.039Z,18.00
2022-10-17T11:30:14.987Z,18.00
2022-10-17T11:31:19.276Z,18.00
2022-10-17T11:33:57.979Z,18.40
2022-10-17T11:35:05.022Z,18.40
2022-10-17T11:36:10.853Z,18.40
2022-10-17T11:37:18.620Z,18.50
2022-10-17T11:38:26.629Z,18.50
2022-10-17T11:39:37.136Z,18.40
2022-10-17T11:40:44.975Z,18.50
2022-10-17T11:41:51.929Z,18.40
2022-10-17T11:43:01.013Z,18.50
2022-10-17T11:44:14.608Z,18.60
2022-10-17T11:45:21.352Z,18.70
2022-10-17T11:46:25.154Z,20.10
2022-10-17T11:47:35.442Z,18.70
2022-10-17T11:48:42.477Z,18.60
2022-10-17T11:49:51.496Z,18.70
2022-10-17T11:52:56.692Z,18.60
2022-10-17T11:54:05.297Z,18.60
2022-10-17T11:55:15.426Z,18.40
2022-10-17T11:56:23.481Z,18.30
2022-10-17T11:57:51.172Z,18.30
2022-10-17T11:59:02.594Z,18.20
2022-10-17T12:00:21.011Z,18.20
2022-10-17T12:01:33.740Z,18.30
2022-10-17T12:02:44.326Z,18.40
2022-10-17T12:04:04.342Z,18.60
2022-10-17T12:05:20.877Z,18.50
2022-10-17T12:06:38.747Z,18.40
2022-10-17T12:07:50.098Z,18.40
2022-10-17T12:09:01.121Z,18.40
2022-10-17T12:10:18.909Z,18.40
2022-10-17T12:11:41.382Z,18.30
2022-10-17T12:12:43.551Z,18.20
2022-10-17T12:13:52.686Z,18.20
2022-10-17T12:14:56.080Z,18.20
2022-10-17T12:16:08.846Z,18.40
2022-10-17T12:17:34.705Z,18.40
2022-10-17T12:18:37.663Z,18.50
2022-10-17T12:19:40.623Z,18.60
2022-10-17T12:20:43.552Z,18.70
2022-10-17T12:21:56.750Z,18.80
2022-10-17T12:23:07.437Z,18.90
2022-10-17T12:24:35.749Z,18.90
2022-10-17T12:25:48.939Z,18.70
2022-10-17T12:26:55.151Z,18.90
2022-10-17T12:28:14.257Z,18.90
2022-10-17T12:29:28.469Z,18.80
2022-10-17T12:30:30.543Z,18.70
2022-10-17T12:31:34.359Z,18.60
2022-10-17T12:33:00.320Z,18.50
2022-10-17T12:34:02.053Z,18.50
2022-10-17T12:35:04.645Z,18.80
2022-10-17T12:36:42.106Z,18.70
2022-10-17T12:38:23.523Z,18.50
2022-10-17T12:39:43.425Z,18.50
2022-10-17T12:40:52.655Z,18.50
2022-10-17T12:41:57.974Z,18.50
2022-10-17T12:42:59.883Z,18.90
2022-10-17T12:44:02.834Z,18.70
2022-10-17T12:45:44.689Z,18.60
2022-10-17T12:46:51.090Z,18.50
2022-10-17T12:47:53.315Z,18.50
2022-10-17T12:49:05.454Z,18.50
2022-10-17T12:50:49.718Z,18.70
2022-10-17T12:52:29.586Z,18.70
2022-10-17T12:53:41.722Z,18.50
2022-10-17T12:55:00.389Z,18.60
2022-10-17T12:56:11.193Z,18.50
2022-10-17T12:57:22.168Z,18.40
2022-10-17T12:58:25.074Z,18.40
2022-10-17T12:59:29.728Z,18.30
2022-10-17T13:00:36.625Z,18.30
2022-10-17T13:01:39.972Z,18.30
2022-10-17T13:02:43.346Z,18.30
2022-10-17T13:03:47.581Z,18.30
2022-10-17T13:04:55.034Z,18.30
2022-10-17T13:06:00.993Z,18.30
2022-10-17T13:07:04.926Z,18.40
2022-10-17T13:08:16.231Z,18.40
2022-10-17T13:09:26.252Z,18.30
2022-10-17T13:10:31.907Z,18.40
2022-10-17T13:11:37.598Z,18.30
2022-10-17T13:12:41.998Z,18.30
2022-10-17T13:13:48.754Z,18.60
2022-10-17T13:14:52.711Z,18.90
2022-10-17T13:15:56.218Z,19.10
2022-10-17T13:17:01.148Z,19.30
2022-10-17T13:18:05.039Z,19.30
2022-10-17T13:19:15.152Z,19.20
2022-10-17T13:20:27.487Z,19.20
2022-10-17T13:21:33.404Z,18.90
2022-10-17T13:22:44.554Z,18.90
2022-10-17T13:23:50.631Z,19.10
2022-10-17T13:25:06.358Z,19.10
2022-10-17T13:26:15.251Z,19.20
2022-10-17T13:27:27.919Z,19.40
2022-10-17T13:28:34.805Z,19.40
2022-10-17T13:29:44.789Z,19.30
2022-10-17T13:30:49.779Z,19.00
2022-10-17T13:31:54.791Z,18.80
2022-10-17T13:32:57.400Z,18.70
2022-10-17T13:34:02.978Z,18.60
2022-10-17T13:35:07.067Z,19.20
2022-10-17T13:36:16.314Z,19.30
2022-10-17T13:37:18.985Z,19.00
2022-10-17T13:38:27.284Z,18.90
2022-10-17T13:39:52.798Z,18.80
2022-10-17T13:41:10.779Z,18.70
2022-10-17T13:42:24.046Z,18.60
2022-10-17T13:43:27.082Z,18.60
2022-10-17T13:44:34.393Z,19.20
2022-10-17T13:45:39.362Z,19.40
2022-10-17T13:46:42.998Z,19.60
2022-10-17T13:47:46.896Z,19.60
2022-10-17T13:48:49.553Z,19.60
2022-10-17T13:49:55.452Z,19.40
2022-10-17T13:51:02.965Z,19.40
2022-10-17T13:52:07.596Z,19.70
2022-10-17T13:53:19.674Z,19.40
2022-10-17T13:54:39.998Z,19.30
2022-10-17T13:56:09.383Z,19.30
2022-10-17T13:57:21.423Z,19.60
2022-10-17T13:58:24.192Z,19.90
2022-10-17T13:59:30.966Z,20.00
2022-10-17T14:00:35.352Z,20.10
2022-10-17T14:01:38.323Z,20.20
2022-10-17T14:02:42.300Z,20.20
2022-10-17T14:03:48.757Z,20.10
2022-10-17T14:05:18.344Z,20.20
2022-10-17T14:06:23.262Z,19.90
2022-10-17T14:08:05.631Z,19.50
2022-10-17T14:09:02.718Z,19.80
2022-10-17T14:10:06.475Z,20.00
2022-10-17T14:11:20.554Z,19.80
2022-10-17T14:12:24.065Z,19.60
2022-10-17T14:13:28.707Z,19.60
2022-10-17T14:14:46.091Z,19.60
2022-10-17T14:15:59.313Z,19.40
2022-10-17T14:17:02.307Z,19.20
2022-10-17T14:18:08.040Z,19.10
2022-10-17T14:19:24.225Z,18.90
2022-10-17T14:21:54.879Z,18.70
2022-10-17T14:23:21.862Z,18.80
2022-10-17T14:24:29.726Z,18.90
2022-10-17T14:25:35.498Z,18.90
2022-10-17T14:26:48.256Z,18.90
2022-10-17T14:27:55.568Z,18.90
2022-10-17T14:29:06.953Z,19.10
2022-10-17T14:30:55.319Z,19.00